Time;durP1;ratioP1;P1;durP2;ratioP2;P2;SDS_P1;SDS_P2;PMS_P1;PMS_P2;Temp;Humidity;BMP_temperature;BMP_pressure;BME280_temperature;BME280_humidity;BME280_pressure;Samples;Min_cycle;Max_cycle;Signal;HPM_P1;HPM_P2
2022/09/23 00:01:13;;;;;;;;;;;12.70;99.90;;;;;;5015945;28;19918;-79
2022/09/23 00:03:44;;;;;;;;;;;12.70;99.90;;;;;;5016170;28;19921;-80
2022/09/23 00:06:10;;;;;;;;;;;12.70;99.90;;;;;;5015716;28;19909;-80
2022/09/23 00:08:36;;;;;;;;;;;12.70;99.90;;;;;;5015984;28;20012;-79
2022/09/23 00:11:03;;;;;;;;;;;12.70;99.90;;;;;;5015652;28;19917;-79
2022/09/23 00:13:28;;;;;;;;;;;12.70;99.90;;;;;;5015863;28;20282;-79
2022/09/23 00:15:53;;;;;;;;;;;12.70;99.90;;;;;;5014251;28;19916;-80
2022/09/23 00:18:19;;;;;;;;;;;12.60;99.90;;;;;;5014596;28;20005;-81
2022/09/23 00:20:45;;;;;;;;;;;12.60;99.90;;;;;;5015635;28;19916;-79
2022/09/23 00:23:11;;;;;;;;;;;12.60;99.90;;;;;;5015623;28;20370;-79
2022/09/23 00:25:36;;;;;;;;;;;12.60;99.90;;;;;;5014095;28;19909;-79
2022/09/23 00:28:02;;;;;;;;;;;12.60;99.90;;;;;;5014194;28;19916;-79
2022/09/23 00:30:28;;;;;;;;;;;12.60;99.90;;;;;;5014098;28;19964;-81
2022/09/23 00:32:55;;;;;;;;;;;12.60;99.90;;;;;;5015549;28;19917;-80
2022/09/23 00:35:21;;;;;;;;;;;12.50;99.90;;;;;;5013909;28;19909;-80
2022/09/23 00:37:46;;;;;;;;;;;12.50;99.90;;;;;;5014437;28;19916;-79
2022/09/23 00:40:12;;;;;;;;;;;12.60;99.90;;;;;;5015276;28;19910;-79
2022/09/23 00:42:44;;;;;;;;;;;12.50;99.90;;;;;;5015366;28;19918;-79
2022/09/23 00:45:10;;;;;;;;;;;12.50;99.90;;;;;;5013930;28;19913;-79
2022/09/23 00:47:44;;;;;;;;;;;12.50;99.90;;;;;;5013687;28;20333;-79
2022/09/23 00:50:13;;;;;;;;;;;12.50;99.90;;;;;;5013967;28;20000;-79
2022/09/23 00:52:39;;;;;;;;;;;12.40;99.90;;;;;;5015112;28;20512;-80
2022/09/23 00:55:07;;;;;;;;;;;12.40;99.90;;;;;;5013783;28;19909;-79
2022/09/23 00:57:33;;;;;;;;;;;12.40;99.90;;;;;;5014764;28;19931;-79
2022/09/23 00:59:59;;;;;;;;;;;12.40;99.90;;;;;;5014972;28;20266;-79
2022/09/23 01:02:25;;;;;;;;;;;12.40;99.90;;;;;;5014871;28;19988;-79
2022/09/23 01:04:50;;;;;;;;;;;12.40;99.90;;;;;;5013698;28;19910;-80
2022/09/23 01:07:16;;;;;;;;;;;12.40;99.90;;;;;;5013463;28;19913;-79
2022/09/23 01:09:42;;;;;;;;;;;12.40;99.90;;;;;;5014869;28;19949;-81
2022/09/23 01:12:17;;;;;;;;;;;12.40;99.90;;;;;;5014793;28;20361;-79
2022/09/23 01:14:42;;;;;;;;;;;12.40;99.90;;;;;;5014654;28;20017;-79
2022/09/23 01:17:14;;;;;;;;;;;12.40;99.90;;;;;;5013387;28;19945;-79
2022/09/23 01:19:41;;;;;;;;;;;12.30;99.90;;;;;;5013417;28;19914;-79
2022/09/23 01:22:27;;;;;;;;;;;12.30;99.90;;;;;;5014448;28;19914;-79
2022/09/23 01:25:14;;;;;;;;;;;12.30;99.90;;;;;;4974131;28;19914;-79
2022/09/23 01:27:54;;;;;;;;;;;12.30;99.90;;;;;;5014336;28;19920;-79
2022/09/23 01:30:34;;;;;;;;;;;12.30;99.90;;;;;;5012954;28;19972;-79
2022/09/23 01:33:06;;;;;;;;;;;12.20;99.90;;;;;;4996916;28;19914;-79
2022/09/23 01:35:38;;;;;;;;;;;12.20;99.90;;;;;;5014529;28;20016;-78
2022/09/23 01:38:07;;;;;;;;;;;12.20;99.90;;;;;;5013069;28;19940;-79
2022/09/23 01:40:35;;;;;;;;;;;12.20;99.90;;;;;;5014303;28;20351;-79
2022/09/23 01:43:14;;;;;;;;;;;12.20;99.90;;;;;;5012848;28;19914;-81
2022/09/23 01:45:42;;;;;;;;;;;12.20;99.90;;;;;;5014293;28;19920;-79
2022/09/23 01:48:17;;;;;;;;;;;12.20;99.90;;;;;;5014317;28;19920;-80
2022/09/23 01:50:56;;;;;;;;;;;12.20;99.90;;;;;;5012897;28;19916;-79
2022/09/23 01:53:42;;;;;;;;;;;12.20;99.90;;;;;;5014187;28;20000;-79
2022/09/23 01:56:21;;;;;;;;;;;12.20;99.90;;;;;;4973179;28;20285;-81
2022/09/23 01:59:01;;;;;;;;;;;12.20;99.90;;;;;;5013203;28;20443;-80
2022/09/23 02:01:35;;;;;;;;;;;12.20;99.90;;;;;;5012646;28;19913;-80
2022/09/23 02:04:17;;;;;;;;;;;12.20;99.90;;;;;;5012728;28;19960;-79
2022/09/23 02:06:47;;;;;;;;;;;12.20;99.90;;;;;;5013823;28;20008;-79
2022/09/23 02:09:17;;;;;;;;;;;12.30;99.90;;;;;;5013789;28;19910;-81
2022/09/23 02:11:44;;;;;;;;;;;12.30;99.90;;;;;;5012391;28;19909;-79
2022/09/23 02:14:16;;;;;;;;;;;12.30;99.90;;;;;;5012460;28;19914;-80
2022/09/23 02:17:02;;;;;;;;;;;12.20;99.90;;;;;;5012327;28;20004;-79
2022/09/23 02:19:30;;;;;;;;;;;12.20;99.90;;;;;;5012221;28;19910;-81
2022/09/23 02:22:02;;;;;;;;;;;12.20;99.90;;;;;;5013388;28;19960;-81
2022/09/23 02:24:29;;;;;;;;;;;12.10;99.90;;;;;;5012094;28;19909;-81
2022/09/23 02:26:55;;;;;;;;;;;12.10;99.90;;;;;;5013274;28;19917;-80
2022/09/23 02:29:25;;;;;;;;;;;12.10;99.90;;;;;;5011852;28;19917;-81
2022/09/23 02:31:56;;;;;;;;;;;12.00;99.90;;;;;;5012176;28;19910;-82
2022/09/23 02:34:28;;;;;;;;;;;12.00;99.90;;;;;;5013275;28;19909;-81
2022/09/23 02:37:14;;;;;;;;;;;12.00;99.90;;;;;;5012847;28;19909;-81
2022/09/23 02:40:02;;;;;;;;;;;12.00;99.90;;;;;;5013149;28;19921;-82
2022/09/23 02:42:41;;;;;;;;;;;12.00;99.90;;;;;;5002252;28;20389;-81
2022/09/23 02:45:06;;;;;;;;;;;11.90;99.90;;;;;;5013026;28;19909;-81
2022/09/23 02:47:33;;;;;;;;;;;11.90;99.90;;;;;;5012920;28;19917;-81
2022/09/23 02:49:58;;;;;;;;;;;11.90;99.90;;;;;;5011766;28;20003;-81
2022/09/23 02:52:24;;;;;;;;;;;11.80;99.90;;;;;;5013063;28;19937;-81
2022/09/23 02:54:50;;;;;;;;;;;11.80;99.90;;;;;;5011603;28;20021;-81
2022/09/23 02:57:16;;;;;;;;;;;11.80;99.90;;;;;;5012730;28;19964;-81
2022/09/23 02:59:42;;;;;;;;;;;11.80;99.90;;;;;;5012544;28;19909;-80
2022/09/23 03:02:13;;;;;;;;;;;11.70;99.90;;;;;;5013150;28;20354;-80
2022/09/23 03:04:59;;;;;;;;;;;11.70;99.90;;;;;;5011645;28;19916;-80
2022/09/23 03:07:43;;;;;;;;;;;11.70;99.90;;;;;;5013017;28;19909;-81
2022/09/23 03:10:19;;;;;;;;;;;11.70;99.90;;;;;;5011666;28;20008;-80
2022/09/23 03:13:12;;;;;;;;;;;11.80;99.90;;;;;;5011662;28;19909;-81
2022/09/23 03:15:47;;;;;;;;;;;11.70;99.90;;;;;;4991929;28;19917;-81
2022/09/23 03:18:18;;;;;;;;;;;11.70;99.90;;;;;;5011595;28;20308;-80
2022/09/23 03:20:48;;;;;;;;;;;11.70;99.90;;;;;;5012790;28;19909;-80
2022/09/23 03:23:17;;;;;;;;;;;11.70;99.90;;;;;;5011399;28;19914;-80
2022/09/23 03:25:44;;;;;;;;;;;11.70;99.90;;;;;;5012521;28;19917;-80
2022/09/23 03:28:10;;;;;;;;;;;11.70;99.90;;;;;;5012710;28;19914;-80
2022/09/23 03:30:36;;;;;;;;;;;11.70;99.90;;;;;;5012744;28;19935;-82
2022/09/23 03:33:03;;;;;;;;;;;11.70;99.90;;;;;;5011442;28;19909;-80
2022/09/23 03:35:31;;;;;;;;;;;11.70;99.90;;;;;;5012639;28;20075;-80
2022/09/23 03:38:11;;;;;;;;;;;11.60;99.90;;;;;;5011308;28;20388;-80
2022/09/23 03:40:40;;;;;;;;;;;11.60;99.90;;;;;;5011245;28;20427;-81
2022/09/23 03:43:06;;;;;;;;;;;11.60;99.90;;;;;;5012652;28;19913;-81
2022/09/23 03:45:32;;;;;;;;;;;11.60;99.90;;;;;;5012596;28;19925;-81
2022/09/23 03:47:58;;;;;;;;;;;11.60;99.90;;;;;;5011317;28;19913;-81
2022/09/23 03:50:24;;;;;;;;;;;11.60;99.90;;;;;;5012398;28;20250;-80
2022/09/23 03:52:49;;;;;;;;;;;11.50;99.90;;;;;;5011249;28;19929;-81
2022/09/23 03:55:15;;;;;;;;;;;11.50;99.90;;;;;;5011184;28;19917;-79
2022/09/23 03:57:41;;;;;;;;;;;11.50;99.90;;;;;;5010986;28;19909;-80
2022/09/23 04:00:07;;;;;;;;;;;11.50;99.90;;;;;;5012549;28;19916;-81
2022/09/23 04:02:33;;;;;;;;;;;11.50;99.90;;;;;;5011084;28;19921;-81
2022/09/23 04:04:58;;;;;;;;;;;11.40;99.90;;;;;;5011105;28;19910;-82
2022/09/23 04:07:24;;;;;;;;;;;11.40;99.90;;;;;;5012205;28;19917;-80
2022/09/23 04:09:50;;;;;;;;;;;11.40;99.90;;;;;;5011031;28;20547;-82
2022/09/23 04:12:15;;;;;;;;;;;11.30;99.90;;;;;;5013223;28;19909;-82
2022/09/23 04:14:41;;;;;;;;;;;11.30;99.90;;;;;;5014545;28;19960;-80
2022/09/23 04:17:07;;;;;;;;;;;11.30;99.90;;;;;;5014560;28;19933;-80
2022/09/23 04:19:32;;;;;;;;;;;11.30;99.90;;;;;;5014328;28;20348;-81
2022/09/23 04:21:58;;;;;;;;;;;11.30;99.90;;;;;;5015727;28;19917;-81
2022/09/23 04:24:23;;;;;;;;;;;11.30;99.90;;;;;;5015751;28;20324;-80
2022/09/23 04:26:51;;;;;;;;;;;11.30;99.90;;;;;;5015712;28;19913;-82
2022/09/23 04:29:16;;;;;;;;;;;11.30;99.90;;;;;;5041051;23;19925;-83
2022/09/23 04:31:42;;;;;;;;;;;11.30;99.90;;;;;;5034504;28;19976;-83
2022/09/23 04:34:07;;;;;;;;;;;11.30;99.90;;;;;;5017826;28;19909;-84
2022/09/23 04:36:33;;;;;;;;;;;11.40;99.90;;;;;;5017564;28;20000;-84
2022/09/23 04:38:59;;;;;;;;;;;11.40;99.90;;;;;;5017697;28;19944;-84
2022/09/23 04:41:24;;;;;;;;;;;11.40;99.90;;;;;;5017861;28;20331;-84
2022/09/23 04:43:50;;;;;;;;;;;11.40;99.90;;;;;;5017538;28;19936;-84
2022/09/23 04:46:15;;;;;;;;;;;11.30;99.90;;;;;;5017343;28;19909;-84
2022/09/23 04:48:41;;;;;;;;;;;11.30;99.90;;;;;;5035105;28;19920;-84
2022/09/23 04:51:07;;;;;;;;;;;11.30;99.90;;;;;;5017481;28;20389;-84
2022/09/23 04:53:34;;;;;;;;;;;11.30;99.90;;;;;;5035230;28;19915;-84
2022/09/23 04:56:00;;;;;;;;;;;11.30;99.90;;;;;;5017100;28;20404;-85
2022/09/23 04:58:26;;;;;;;;;;;11.20;99.90;;;;;;5017357;28;19924;-84
2022/09/23 05:00:51;;;;;;;;;;;11.30;99.90;;;;;;5017284;28;19913;-83
2022/09/23 05:03:16;;;;;;;;;;;11.20;99.90;;;;;;5017068;28;20020;-84
2022/09/23 05:05:42;;;;;;;;;;;11.20;99.90;;;;;;5034756;28;19910;-84
2022/09/23 05:08:08;;;;;;;;;;;11.30;99.90;;;;;;5017132;28;19913;-83
2022/09/23 05:10:33;;;;;;;;;;;11.20;99.90;;;;;;5016940;28;19913;-83
2022/09/23 05:12:59;;;;;;;;;;;11.20;99.90;;;;;;5016949;28;19909;-84
2022/09/23 05:15:24;;;;;;;;;;;11.20;99.90;;;;;;5017015;28;19909;-84
2022/09/23 05:17:49;;;;;;;;;;;11.20;99.90;;;;;;5016683;28;20369;-83
2022/09/23 05:20:16;;;;;;;;;;;11.20;99.90;;;;;;5034631;28;19909;-84
2022/09/23 05:22:41;;;;;;;;;;;11.20;99.90;;;;;;5016629;28;19923;-84
2022/09/23 05:25:07;;;;;;;;;;;11.20;99.90;;;;;;5016667;28;20346;-84
2022/09/23 05:27:32;;;;;;;;;;;11.20;99.90;;;;;;5016451;28;19909;-84
2022/09/23 05:29:58;;;;;;;;;;;11.20;99.90;;;;;;5016378;28;20380;-84
2022/09/23 05:32:24;;;;;;;;;;;11.20;99.90;;;;;;5016605;28;19931;-83
2022/09/23 05:34:50;;;;;;;;;;;11.20;99.90;;;;;;5016583;28;20400;-83
2022/09/23 05:37:15;;;;;;;;;;;11.20;99.90;;;;;;5016261;28;20009;-83
2022/09/23 05:39:41;;;;;;;;;;;11.20;99.90;;;;;;5016144;28;20011;-84
2022/09/23 05:42:06;;;;;;;;;;;11.20;99.90;;;;;;5016164;28;19913;-84
2022/09/23 05:44:32;;;;;;;;;;;11.20;99.90;;;;;;5016601;28;19909;-84
2022/09/23 05:46:57;;;;;;;;;;;11.20;99.90;;;;;;5033704;28;19909;-83
2022/09/23 05:49:23;;;;;;;;;;;11.10;99.90;;;;;;5033747;28;19913;-83
2022/09/23 05:51:48;;;;;;;;;;;11.10;99.90;;;;;;5016524;28;20004;-85
2022/09/23 05:54:14;;;;;;;;;;;11.10;99.90;;;;;;5015994;28;19916;-86
2022/09/23 05:56:39;;;;;;;;;;;11.10;99.90;;;;;;5015858;28;19909;-85
2022/09/23 05:59:05;;;;;;;;;;;11.10;99.90;;;;;;5015941;28;20379;-86
2022/09/23 06:01:32;;;;;;;;;;;11.10;99.90;;;;;;5033737;28;20007;-85
2022/09/23 06:04:02;;;;;;;;;;;11.20;99.90;;;;;;5015907;28;20265;-86
2022/09/23 06:06:29;;;;;;;;;;;11.20;99.90;;;;;;5033264;28;19955;-85
2022/09/23 06:08:55;;;;;;;;;;;11.30;99.90;;;;;;5015746;28;19948;-85
2022/09/23 06:11:20;;;;;;;;;;;11.40;99.90;;;;;;5015860;28;19932;-86
2022/09/23 06:13:47;;;;;;;;;;;11.50;99.90;;;;;;5015778;28;19909;-85
2022/09/23 06:16:13;;;;;;;;;;;11.50;99.90;;;;;;5015454;28;20428;-85
2022/09/23 06:18:43;;;;;;;;;;;11.60;99.90;;;;;;5015739;28;19931;-86
2022/09/23 06:21:10;;;;;;;;;;;11.70;99.90;;;;;;5015544;28;19909;-86
2022/09/23 06:23:35;;;;;;;;;;;11.80;99.90;;;;;;5015497;28;19913;-85
2022/09/23 06:26:05;;;;;;;;;;;11.90;99.90;;;;;;5015356;28;19936;-85
2022/09/23 06:28:31;;;;;;;;;;;12.00;99.90;;;;;;5015493;28;20400;-85
2022/09/23 06:30:57;;;;;;;;;;;12.00;99.90;;;;;;5015340;28;19917;-86
2022/09/23 06:33:23;;;;;;;;;;;12.10;99.90;;;;;;5015311;28;19910;-86
2022/09/23 06:35:48;;;;;;;;;;;12.10;99.90;;;;;;5014659;28;19948;-86
2022/09/23 06:38:14;;;;;;;;;;;12.20;99.90;;;;;;5033107;28;19909;-85
2022/09/23 06:40:39;;;;;;;;;;;12.30;99.90;;;;;;5015117;28;20319;-86
2022/09/23 06:43:05;;;;;;;;;;;12.30;99.90;;;;;;5015074;28;19919;-86
2022/09/23 06:45:30;;;;;;;;;;;12.40;99.90;;;;;;5015052;28;19913;-85
2022/09/23 06:47:56;;;;;;;;;;;12.50;99.90;;;;;;5015124;28;19909;-86
2022/09/23 06:50:25;;;;;;;;;;;12.60;99.90;;;;;;5015230;28;20419;-86
2022/09/23 06:52:54;;;;;;;;;;;12.80;99.90;;;;;;5015177;28;19982;-86
2022/09/23 06:55:23;;;;;;;;;;;12.90;99.90;;;;;;5014855;28;20127;-85
2022/09/23 06:57:48;;;;;;;;;;;13.00;99.90;;;;;;5014937;28;20293;-84
2022/09/23 07:00:14;;;;;;;;;;;13.10;99.90;;;;;;5032575;28;19967;-86
2022/09/23 07:02:40;;;;;;;;;;;13.10;99.90;;;;;;5014930;28;20418;-86
2022/09/23 07:05:06;;;;;;;;;;;13.30;99.90;;;;;;5014972;28;20003;-86
2022/09/23 07:07:32;;;;;;;;;;;13.50;99.90;;;;;;5014835;28;19953;-87
2022/09/23 07:09:58;;;;;;;;;;;13.60;99.90;;;;;;5014885;28;19995;-86
2022/09/23 07:12:23;;;;;;;;;;;13.80;99.90;;;;;;5032660;28;19955;-85
2022/09/23 07:14:48;;;;;;;;;;;14.00;99.90;;;;;;5014793;28;19917;-86
2022/09/23 07:17:14;;;;;;;;;;;14.20;99.90;;;;;;5014665;28;19909;-86
2022/09/23 07:19:39;;;;;;;;;;;14.40;99.90;;;;;;5014793;28;19913;-85
2022/09/23 07:22:05;;;;;;;;;;;14.60;99.90;;;;;;5014526;28;19919;-85
2022/09/23 07:24:31;;;;;;;;;;;14.70;99.90;;;;;;5032533;28;19920;-87
2022/09/23 07:26:57;;;;;;;;;;;14.70;99.90;;;;;;5014631;28;20546;-87
2022/09/23 07:29:22;;;;;;;;;;;14.80;99.90;;;;;;5014589;28;19996;-85
2022/09/23 07:31:48;;;;;;;;;;;14.90;99.90;;;;;;5014547;28;19935;-84
2022/09/23 07:34:13;;;;;;;;;;;14.90;99.90;;;;;;5014759;28;20400;-86
2022/09/23 07:36:42;;;;;;;;;;;14.90;99.90;;;;;;5032057;28;19971;-85
2022/09/23 07:39:08;;;;;;;;;;;14.90;99.90;;;;;;5014546;28;20289;-86
2022/09/23 07:41:34;;;;;;;;;;;15.00;99.90;;;;;;5032393;28;20361;-86
2022/09/23 07:44:00;;;;;;;;;;;15.10;99.90;;;;;;5014522;28;19913;-87
2022/09/23 07:46:26;;;;;;;;;;;15.20;99.90;;;;;;5016875;28;19909;-86
2022/09/23 07:48:53;;;;;;;;;;;15.30;99.90;;;;;;5018192;28;19920;-86
2022/09/23 07:51:20;;;;;;;;;;;15.30;99.90;;;;;;5018326;28;20000;-85
2022/09/23 07:53:50;;;;;;;;;;;15.40;99.90;;;;;;5018229;28;19916;-87
2022/09/23 07:56:17;;;;;;;;;;;15.40;99.90;;;;;;5036018;28;20312;-86
2022/09/23 07:58:43;;;;;;;;;;;15.40;99.90;;;;;;5036277;28;20403;-85
2022/09/23 08:01:10;;;;;;;;;;;15.50;99.90;;;;;;5018624;28;19909;-86
2022/09/23 08:03:35;;;;;;;;;;;15.50;99.90;;;;;;5011805;28;19917;-87
2022/09/23 08:06:04;;;;;;;;;;;15.70;99.90;;;;;;5031931;28;19922;-86
2022/09/23 08:08:29;;;;;;;;;;;15.80;99.90;;;;;;5020967;28;20677;-85
2022/09/23 08:11:05;;;;;;;;;;;15.90;99.90;;;;;;5019992;28;19909;-87
2022/09/23 08:13:31;;;;;;;;;;;15.90;99.90;;;;;;5031315;28;20009;-87
2022/09/23 08:15:57;;;;;;;;;;;16.00;99.90;;;;;;5006437;28;19956;-85
2022/09/23 08:18:22;;;;;;;;;;;16.10;99.90;;;;;;5019013;28;19909;-87
2022/09/23 08:20:48;;;;;;;;;;;16.10;99.90;;;;;;5018205;28;20426;-86
2022/09/23 08:23:14;;;;;;;;;;;16.20;99.90;;;;;;5037239;28;19913;-87
2022/09/23 08:25:40;;;;;;;;;;;16.20;99.90;;;;;;5018565;28;19952;-84
2022/09/23 08:28:05;;;;;;;;;;;16.30;99.90;;;;;;5019824;28;20351;-86
2022/09/23 08:30:31;;;;;;;;;;;16.40;99.90;;;;;;5019743;28;19921;-86
2022/09/23 08:32:56;;;;;;;;;;;16.40;99.90;;;;;;5021225;28;19972;-86
2022/09/23 08:35:22;;;;;;;;;;;16.60;99.90;;;;;;5018790;28;20018;-86
2022/09/23 08:37:47;;;;;;;;;;;16.70;99.90;;;;;;5017628;28;19916;-87
2022/09/23 08:40:13;;;;;;;;;;;16.80;99.90;;;;;;5035923;28;20023;-86
2022/09/23 08:42:40;;;;;;;;;;;16.90;99.90;;;;;;5017690;28;19952;-85
2022/09/23 08:45:06;;;;;;;;;;;17.00;99.90;;;;;;5018371;28;19909;-85
2022/09/23 08:47:44;;;;;;;;;;;17.10;99.90;;;;;;5017954;28;19916;-86
2022/09/23 08:50:17;;;;;;;;;;;17.20;99.90;;;;;;5018083;28;19909;-86
2022/09/23 08:52:49;;;;;;;;;;;17.20;99.90;;;;;;5017387;28;19908;-86
2022/09/23 08:55:15;;;;;;;;;;;17.30;99.90;;;;;;5017714;28;19912;-86
2022/09/23 08:57:40;;;;;;;;;;;17.60;99.90;;;;;;5017728;28;20326;-86
2022/09/23 09:00:06;;;;;;;;;;;17.70;99.90;;;;;;5017348;28;19916;-90
2022/09/23 09:02:33;;;;;;;;;;;17.80;99.90;;;;;;5017232;28;19913;-90
2022/09/23 09:05:25;;;;;;;;;;;17.80;99.90;;;;;;5034887;28;19958;-90
2022/09/23 09:07:56;;;;;;;;;;;17.80;99.90;;;;;;5016670;28;19968;-89
2022/09/23 09:16:57;;;;;;;;;;;18.00;99.90;;;;;;4999343;28;19909;-92
2022/09/23 09:19:40;;;;;;;;;;;18.20;99.90;;;;;;5029484;28;19909;-90
2022/09/23 09:22:11;;;;;;;;;;;18.40;99.90;;;;;;5016968;28;20324;-88
2022/09/23 09:24:37;;;;;;;;;;;18.50;99.90;;;;;;5017023;28;19910;-88
2022/09/23 09:27:12;;;;;;;;;;;18.60;99.90;;;;;;5016800;28;19916;-86
2022/09/23 09:29:39;;;;;;;;;;;18.80;99.90;;;;;;5017027;28;19959;-85
2022/09/23 09:32:17;;;;;;;;;;;18.90;99.90;;;;;;5016336;28;20692;-85
2022/09/23 09:34:46;;;;;;;;;;;19.10;99.90;;;;;;5018016;28;20380;-86
2022/09/23 09:37:24;;;;;;;;;;;19.40;99.90;;;;;;5017882;28;19959;-85
2022/09/23 09:39:49;;;;;;;;;;;19.60;99.90;;;;;;5016253;28;19909;-86
2022/09/23 09:42:19;;;;;;;;;;;19.50;99.90;;;;;;5016136;28;20349;-85
2022/09/23 09:44:49;;;;;;;;;;;19.60;99.90;;;;;;5016269;28;19909;-85
2022/09/23 09:47:34;;;;;;;;;;;20.20;99.90;;;;;;5015339;28;20316;-86
2022/09/23 09:50:07;;;;;;;;;;;20.90;99.90;;;;;;5017133;28;19935;-86
2022/09/23 09:52:33;;;;;;;;;;;21.20;99.90;;;;;;5020134;28;20662;-86
2022/09/23 09:55:11;;;;;;;;;;;21.30;99.90;;;;;;5018331;28;20023;-88
2022/09/23 09:58:00;;;;;;;;;;;21.50;99.90;;;;;;5033297;28;19909;-87
2022/09/23 10:00:26;;;;;;;;;;;21.50;99.90;;;;;;5033380;28;19913;-83
2022/09/23 10:02:52;;;;;;;;;;;21.40;99.90;;;;;;5015690;28;20003;-85
2022/09/23 10:05:24;;;;;;;;;;;21.30;99.90;;;;;;5016626;28;19970;-86
2022/09/23 10:07:50;;;;;;;;;;;21.10;99.90;;;;;;5017689;28;19959;-84
2022/09/23 10:10:20;;;;;;;;;;;21.20;99.90;;;;;;5014906;28;20311;-87
2022/09/23 10:12:47;;;;;;;;;;;21.20;99.90;;;;;;5035017;28;19909;-85
2022/09/23 10:15:25;;;;;;;;;;;21.30;99.90;;;;;;5016407;28;20368;-85
2022/09/23 10:17:50;;;;;;;;;;;21.40;99.90;;;;;;5015482;28;20387;-86
2022/09/23 10:20:16;;;;;;;;;;;21.50;99.90;;;;;;5014900;28;19915;-85
2022/09/23 10:22:42;;;;;;;;;;;21.60;99.90;;;;;;5033285;28;19919;-88
2022/09/23 10:25:09;;;;;;;;;;;21.70;99.90;;;;;;5033107;28;19915;-88
2022/09/23 10:27:35;;;;;;;;;;;21.60;99.90;;;;;;5015174;28;19909;-87
2022/09/23 10:30:03;;;;;;;;;;;21.50;99.90;;;;;;5035439;23;19933;-83
2022/09/23 10:32:29;;;;;;;;;;;21.50;99.90;;;;;;5013390;28;19910;-83
2022/09/23 10:34:56;;;;;;;;;;;21.40;99.90;;;;;;5012257;28;19914;-82
2022/09/23 10:37:30;;;;;;;;;;;21.30;99.90;;;;;;5013626;28;19959;-82
2022/09/23 10:48:27;;;;;;;;;;;21.10;99.90;;;;;;5014176;28;19916;-84
2022/09/23 10:50:54;;;;;;;;;;;21.10;99.90;;;;;;5016151;28;19913;-83
2022/09/23 10:53:52;;;;;;;;;;;21.20;99.90;;;;;;5013460;28;20357;-84
2022/09/23 10:56:20;;;;;;;;;;;21.20;99.90;;;;;;4979090;28;19920;-84
2022/09/23 10:59:04;;;;;;;;;;;21.30;99.90;;;;;;5011455;28;19914;-83
2022/09/23 11:01:59;;;;;;;;;;;21.30;99.90;;;;;;5012504;28;19956;-83
2022/09/23 11:04:31;;;;;;;;;;;21.40;99.90;;;;;;4959135;28;19915;-84
2022/09/23 11:07:16;;;;;;;;;;;21.50;99.90;;;;;;5012024;28;19905;-83
2022/09/23 11:10:01;;;;;;;;;;;21.30;99.90;;;;;;5012690;28;19957;-84
2022/09/23 11:12:26;;;;;;;;;;;21.30;99.90;;;;;;5012547;28;19917;-82
2022/09/23 11:15:08;;;;;;;;;;;21.10;99.90;;;;;;5012673;28;19910;-82
2022/09/23 11:17:52;;;;;;;;;;;21.10;99.90;;;;;;5010649;28;19913;-83
2022/09/23 11:20:36;;;;;;;;;;;21.00;99.90;;;;;;5013013;28;20315;-82
2022/09/23 11:23:19;;;;;;;;;;;21.00;99.90;;;;;;5016232;28;19913;-82
2022/09/23 11:26:00;;;;;;;;;;;20.80;99.90;;;;;;5015891;28;19910;-83
2022/09/23 11:28:41;;;;;;;;;;;20.90;99.90;;;;;;5015159;28;19929;-83
2022/09/23 11:31:08;;;;;;;;;;;21.00;99.90;;;;;;5016245;28;19957;-83
2022/09/23 11:33:39;;;;;;;;;;;21.00;99.90;;;;;;5016206;28;19909;-82
2022/09/23 11:36:10;;;;;;;;;;;21.00;99.90;;;;;;5015778;28;19921;-83
2022/09/23 11:38:46;;;;;;;;;;;21.00;99.90;;;;;;5016473;28;20011;-83
2022/09/23 11:41:28;;;;;;;;;;;20.90;99.90;;;;;;5016380;28;19917;-82
2022/09/23 11:44:17;;;;;;;;;;;21.00;99.90;;;;;;5016790;28;20361;-82
2022/09/23 11:46:44;;;;;;;;;;;21.10;99.90;;;;;;5007102;28;20254;-83
2022/09/23 11:49:14;;;;;;;;;;;21.10;99.90;;;;;;5016616;28;20592;-83
2022/09/23 11:51:50;;;;;;;;;;;21.20;99.90;;;;;;5014672;28;19953;-82
2022/09/23 11:54:16;;;;;;;;;;;21.00;99.90;;;;;;5014578;28;19964;-82
2022/09/23 11:56:44;;;;;;;;;;;21.00;99.90;;;;;;5015055;28;20373;-82
2022/09/23 11:59:17;;;;;;;;;;;21.10;99.90;;;;;;5015900;28;19909;-83
2022/09/23 12:01:54;;;;;;;;;;;21.00;99.90;;;;;;5016073;28;19909;-83
2022/09/23 12:04:26;;;;;;;;;;;21.20;99.90;;;;;;5014424;28;19913;-84
2022/09/23 12:06:56;;;;;;;;;;;21.40;99.90;;;;;;5013835;28;19917;-83
2022/09/23 12:09:24;;;;;;;;;;;21.50;99.90;;;;;;5016455;28;19910;-84
2022/09/23 12:11:54;;;;;;;;;;;21.70;98.90;;;;;;5015829;28;20012;-83
2022/09/23 12:14:32;;;;;;;;;;;21.90;98.30;;;;;;5014414;28;19932;-83
2022/09/23 12:17:10;;;;;;;;;;;21.90;99.90;;;;;;5013678;28;19910;-83
2022/09/23 12:19:41;;;;;;;;;;;22.10;99.90;;;;;;5015426;28;19933;-83
2022/09/23 12:22:23;;;;;;;;;;;22.30;98.40;;;;;;5014015;28;19909;-83
2022/09/23 12:25:04;;;;;;;;;;;22.10;95.40;;;;;;5015534;28;20261;-84
2022/09/23 12:27:42;;;;;;;;;;;22.10;95.80;;;;;;5014457;28;19909;-83
2022/09/23 12:30:12;;;;;;;;;;;22.20;96.60;;;;;;5015049;28;19957;-83
2022/09/23 12:32:38;;;;;;;;;;;22.40;94.10;;;;;;5012920;28;19921;-84
2022/09/23 12:35:06;;;;;;;;;;;22.50;95.30;;;;;;5015302;28;19909;-84
2022/09/23 12:37:36;;;;;;;;;;;22.10;94.00;;;;;;5016570;28;20389;-84
2022/09/23 12:40:17;;;;;;;;;;;21.90;94.80;;;;;;5015774;28;19910;-84
2022/09/23 12:42:44;;;;;;;;;;;22.00;94.80;;;;;;5015368;28;19913;-84
2022/09/23 12:45:16;;;;;;;;;;;22.00;95.00;;;;;;5015194;28;19968;-83
2022/09/23 12:47:42;;;;;;;;;;;22.00;93.40;;;;;;5013780;28;20385;-84
2022/09/23 12:50:26;;;;;;;;;;;22.00;92.30;;;;;;5015239;28;19978;-84
2022/09/23 12:52:51;;;;;;;;;;;21.80;93.50;;;;;;5015128;28;19910;-83
2022/09/23 12:55:20;;;;;;;;;;;21.60;94.20;;;;;;5015660;28;19915;-83
2022/09/23 12:57:47;;;;;;;;;;;21.60;97.00;;;;;;5013825;28;19976;-84
2022/09/23 13:00:14;;;;;;;;;;;21.80;94.70;;;;;;5015044;28;19967;-84
2022/09/23 13:02:41;;;;;;;;;;;21.70;94.50;;;;;;5014816;28;20005;-84
2022/09/23 13:07:51;;;;;;;;;;;22.10;93.00;;;;;;5016032;28;20504;-85
2022/09/23 13:10:35;;;;;;;;;;;22.30;90.90;;;;;;5014530;28;20357;-84
2022/09/23 13:13:01;;;;;;;;;;;22.20;89.60;;;;;;5013832;28;19909;-84
2022/09/23 13:15:28;;;;;;;;;;;22.10;91.70;;;;;;5013935;28;19916;-81
2022/09/23 13:18:12;;;;;;;;;;;22.00;91.60;;;;;;5015037;28;19917;-82
2022/09/23 13:20:39;;;;;;;;;;;21.90;94.20;;;;;;5013887;28;19910;-81
2022/09/23 13:23:21;;;;;;;;;;;21.70;92.20;;;;;;5009993;28;19972;-79
2022/09/23 13:25:48;;;;;;;;;;;21.70;93.70;;;;;;5007932;28;19916;-78
2022/09/23 13:28:30;;;;;;;;;;;21.70;94.10;;;;;;5009492;28;19909;-78
2022/09/23 13:30:57;;;;;;;;;;;21.70;92.30;;;;;;5014410;28;20300;-78
2022/09/23 13:33:41;;;;;;;;;;;21.50;90.80;;;;;;5013451;28;19914;-78
2022/09/23 13:36:13;;;;;;;;;;;21.40;92.70;;;;;;5014050;28;19914;-78
2022/09/23 13:38:39;;;;;;;;;;;21.40;93.10;;;;;;5016025;28;19960;-78
2022/09/23 13:41:14;;;;;;;;;;;21.40;94.10;;;;;;5015109;28;19913;-78
2022/09/23 13:43:42;;;;;;;;;;;21.40;96.60;;;;;;5013758;28;19913;-79
2022/09/23 13:46:08;;;;;;;;;;;21.30;96.30;;;;;;5015510;28;19909;-79
2022/09/23 13:48:34;;;;;;;;;;;21.30;93.80;;;;;;5014989;28;19941;-79
2022/09/23 13:51:04;;;;;;;;;;;21.20;95.30;;;;;;5013562;28;19913;-78
2022/09/23 13:53:31;;;;;;;;;;;21.20;95.00;;;;;;5015014;28;20296;-79
2022/09/23 13:56:02;;;;;;;;;;;21.10;95.70;;;;;;5013383;28;19962;-78
2022/09/23 13:58:29;;;;;;;;;;;21.10;96.80;;;;;;5015246;28;19960;-79
2022/09/23 14:00:54;;;;;;;;;;;21.10;95.80;;;;;;5015426;28;20008;-80
2022/09/23 14:03:23;;;;;;;;;;;21.10;97.90;;;;;;5014741;28;19956;-79
2022/09/23 14:05:49;;;;;;;;;;;21.10;96.50;;;;;;5014645;28;19917;-79
2022/09/23 14:08:14;;;;;;;;;;;21.10;95.00;;;;;;5014992;28;19910;-78
2022/09/23 14:10:42;;;;;;;;;;;21.10;94.80;;;;;;5013927;28;20015;-78
2022/09/23 14:13:19;;;;;;;;;;;21.10;95.60;;;;;;5015652;28;19917;-78
2022/09/23 14:15:45;;;;;;;;;;;21.00;96.30;;;;;;5013510;28;19963;-78
2022/09/23 14:18:16;;;;;;;;;;;21.00;96.90;;;;;;5014923;28;19909;-78
2022/09/23 14:20:46;;;;;;;;;;;21.00;96.80;;;;;;5012741;28;19909;-78
2022/09/23 14:23:14;;;;;;;;;;;21.00;95.50;;;;;;5014635;28;19960;-79
2022/09/23 14:25:41;;;;;;;;;;;21.10;95.90;;;;;;5013484;28;19909;-78
2022/09/23 14:28:11;;;;;;;;;;;21.10;95.50;;;;;;5015120;28;19909;-78
2022/09/23 14:30:37;;;;;;;;;;;21.00;94.20;;;;;;5017885;28;19918;-78
2022/09/23 14:33:07;;;;;;;;;;;21.00;94.70;;;;;;5017250;28;19936;-79
2022/09/23 14:35:40;;;;;;;;;;;21.10;95.00;;;;;;5016111;28;19955;-78
2022/09/23 14:41:14;;;;;;;;;;;21.10;93.30;;;;;;5016574;28;19916;-78
2022/09/23 14:43:45;;;;;;;;;;;21.10;94.30;;;;;;5014571;28;19918;-79
2022/09/23 14:46:20;;;;;;;;;;;21.10;93.90;;;;;;5015719;28;19917;-78
2022/09/23 14:48:57;;;;;;;;;;;21.00;95.70;;;;;;5016659;28;19913;-78
2022/09/23 14:51:29;;;;;;;;;;;21.00;94.00;;;;;;5015841;28;20320;-78